Airfield :
LOGIN :

Register | Disclaimer

   EN    FR    IT 

 










Legend :    VFR   Marginal VFR   IFR   Intensive IFR   Very Intensive IFR
Visi :
Ceiling :
>= 8 km
>= 3000ft
5 to 8 km
1000 to 3000 ft
1500m to 5 km
500 to 1000 ft
800 to 1500m
200 to 500 ft
< 800m
< 200 ft
Symbols :   Thunderstorms  Fog  Heavy snow  Heavy precipitations  Wind > 20 kt
SIGMETs :     Misc.  Thunderstorms  Icing  Turbulence  Mountain Waves  Volcanic Ashes







- Airport Elevation : 44 ft
- IATA code : SOU
- Download approach charts


EGHI - Southampton

CURRENT METAR :
  • 141450Z 28007KT 240V310 9999 FEW028 SCT042 22/13 Q1017

EXPIRED METARs :
  • 141420Z 26007KT 220V310 9999 FEW028 SCT042 22/12 Q1017
  • 141350Z VRB06KT 9999 FEW027 SCT040 21/15 Q1017
  • 141320Z 21009KT 9999 FEW027 SCT039 21/14 Q1017
  • 141250Z 26006KT 210V300 9999 SCT038 21/14 Q1017
  • 141220Z 27007KT 230V310 9999 SCT035 22/13 Q1017

TAF TAF EGHI
Valid from the 14 at 15:00 until the 14 at 22:00 UTC


141357Z 1415/1422 25007KT 9999 SCT035
ATIS : +44 23 8062 7103
No reported NOTAMs for that airfield.



MET'MAP, your aeronautical weather chart ! - Copyright ORBIFLY December 2007 - Disclaimer

ORBIFLY MET'MAP TEAM :

Programming & Development : Alexandra Zaïnal
Concept & Development : Baudouin d'Aumeries
Co-Development & Prog : Marc-Olivier Méhu
Technical & hardware support : Manuel Goepfert

Contact : metmap@orbifly.com




SOURCES & CREDITS :

   NOAA